Time;durP1;ratioP1;P1;durP2;ratioP2;P2;SDS_P1;SDS_P2;PMS_P1;PMS_P2;Temp;Humidity;BMP_temperature;BMP_pressure;BME280_temperature;BME280_humidity;BME280_pressure;Samples;Min_cycle;Max_cycle;Signal;HPM_P1;HPM_P2
2021/09/07 00:01:42;;;;;;;8.98;6.85;;;;;;;22.77;52.96;100965.08;1793877;77;21508;-70
2021/09/07 00:04:09;;;;;;;12.90;7.17;;;;;;;22.78;52.95;100965.36;1829648;77;21485;-71
2021/09/07 00:06:36;;;;;;;13.88;6.87;;;;;;;22.78;53.07;100959.13;1829683;77;21029;-70
2021/09/07 00:09:02;;;;;;;8.13;6.25;;;;;;;22.78;53.07;100961.30;1811030;77;21359;-71
2021/09/07 00:11:29;;;;;;;8.83;6.30;;;;;;;22.79;53.19;100962.13;1827221;77;21075;-71
2021/09/07 00:13:58;;;;;;;8.33;6.50;;;;;;;22.78;53.46;100964.01;1797455;77;21077;-70
2021/09/07 00:16:24;;;;;;;8.43;5.95;;;;;;;22.78;53.29;100965.89;1832470;77;21050;-71
2021/09/07 00:18:52;;;;;;;8.75;5.67;;;;;;;22.79;53.26;100962.13;1833071;77;21045;-71
2021/09/07 00:21:19;;;;;;;7.67;6.30;;;;;;;22.79;53.56;100962.13;1830957;77;21216;-71
2021/09/07 00:23:47;;;;;;;10.80;6.75;;;;;;;22.78;53.31;100961.83;1834248;77;21501;-71
2021/09/07 00:26:13;;;;;;;11.45;6.58;;;;;;;22.78;53.57;100963.19;1821999;77;21048;-70
2021/09/07 00:28:40;;;;;;;9.73;6.67;;;;;;;22.78;53.45;100965.36;1811803;77;21011;-71
2021/09/07 00:31:08;;;;;;;7.67;5.70;;;;;;;22.78;53.75;100965.36;1829825;77;21515;-70
2021/09/07 00:33:35;;;;;;;9.25;6.72;;;;;;;22.78;53.85;100957.77;1799380;77;21389;-69
2021/09/07 00:36:01;;;;;;;7.25;5.83;;;;;;;22.78;53.53;100959.13;1826983;77;21041;-69
2021/09/07 00:38:27;;;;;;;8.90;5.80;;;;;;;22.79;53.90;100963.48;1796871;77;21080;-69
2021/09/07 00:40:54;;;;;;;8.88;6.62;;;;;;;22.78;53.51;100957.23;1826227;77;21064;-69
2021/09/07 00:43:21;;;;;;;7.55;6.33;;;;;;;22.80;53.88;100965.68;1831527;77;21020;-69
2021/09/07 00:45:49;;;;;;;8.08;6.08;;;;;;;22.79;53.90;100966.19;1800241;78;21854;-69
2021/09/07 00:48:17;;;;;;;7.58;6.17;;;;;;;22.79;53.97;100967.53;1823838;77;21060;-70
2021/09/07 00:50:46;;;;;;;7.87;5.95;;;;;;;22.79;54.02;100959.41;1798960;77;21041;-69
2021/09/07 00:53:13;;;;;;;8.43;5.80;;;;;;;22.78;54.34;100962.66;1808014;77;21054;-69
2021/09/07 00:55:39;;;;;;;9.48;6.75;;;;;;;22.78;53.98;100960.48;1838154;77;21009;-69
2021/09/07 00:58:08;;;;;;;8.03;5.97;;;;;;;22.80;54.00;100958.91;1814532;77;21076;-70
2021/09/07 01:00:34;;;;;;;7.10;5.87;;;;;;;22.79;54.19;100958.06;1848416;77;21322;-69
2021/09/07 01:03:02;;;;;;;10.88;6.10;;;;;;;22.79;54.62;100959.41;1848230;77;21056;-69
2021/09/07 01:05:29;;;;;;;7.75;5.83;;;;;;;22.81;54.32;100959.20;1848867;77;21041;-71
2021/09/07 01:07:58;;;;;;;7.53;5.97;;;;;;;22.79;54.08;100962.13;1801224;78;21033;-69
2021/09/07 01:10:25;;;;;;;8.40;6.42;;;;;;;22.79;54.17;100955.34;1809340;78;21131;-71
2021/09/07 01:12:53;;;;;;;10.15;6.42;;;;;;;22.81;54.12;100957.84;1835323;77;21509;-71
2021/09/07 01:15:20;;;;;;;8.45;5.78;;;;;;;22.81;54.19;100954.60;1834216;77;21045;-69
2021/09/07 01:17:47;;;;;;;7.12;5.47;;;;;;;22.81;54.68;100954.60;1834905;77;20993;-69
2021/09/07 01:20:14;;;;;;;7.28;5.40;;;;;;;22.81;54.39;100955.95;1846138;77;21115;-70
2021/09/07 01:22:40;;;;;;;8.13;6.28;;;;;;;22.82;54.57;100958.16;1840343;77;21024;-70
2021/09/07 01:25:08;;;;;;;8.45;6.15;;;;;;;22.81;54.74;100962.73;1829933;77;21041;-69
2021/09/07 01:27:35;;;;;;;6.55;5.45;;;;;;;22.82;54.81;100960.34;1833479;77;21474;-69
2021/09/07 01:30:03;;;;;;;7.45;6.17;;;;;;;22.75;55.16;100950.92;1804529;77;21534;-69
2021/09/07 01:32:31;;;;;;;7.75;5.28;;;;;;;22.81;54.88;100958.67;1836370;77;21005;-69
2021/09/07 01:34:58;;;;;;;7.55;5.75;;;;;;;22.82;54.77;100956.81;1834181;77;21136;-68
2021/09/07 01:37:26;;;;;;;7.37;5.75;;;;;;;22.82;54.87;100958.16;1826291;77;21052;-69
2021/09/07 01:39:52;;;;;;;7.12;5.53;;;;;;;22.82;54.77;100959.52;1841183;77;21015;-68
2021/09/07 01:42:22;;;;;;;8.15;5.53;;;;;;;22.81;54.94;100957.84;1833857;77;21053;-68
2021/09/07 01:44:47;;;;;;;6.67;5.92;;;;;;;22.81;54.84;100960.02;1849781;77;21029;-69
2021/09/07 01:47:13;;;;;;;7.22;5.90;;;;;;;22.81;54.88;100955.95;1793103;77;21017;-68
2021/09/07 01:49:41;;;;;;;8.08;5.67;;;;;;;22.80;54.89;100952.95;1792657;78;21088;-69
2021/09/07 01:52:12;;;;;;;6.97;5.40;;;;;;;22.82;55.05;100956.28;1819627;78;21045;-68
2021/09/07 01:54:43;;;;;;;7.47;6.15;;;;;;;22.82;54.85;100953.56;1800089;78;21547;-68
2021/09/07 01:57:10;;;;;;;6.10;5.40;;;;;;;22.83;54.69;100955.23;1816791;78;21532;-68
2021/09/07 01:59:38;;;;;;;6.22;5.22;;;;;;;22.84;54.69;100952.00;1816122;78;21863;-68
2021/09/07 02:02:05;;;;;;;6.67;5.83;;;;;;;22.84;54.63;100957.42;1816648;78;22303;-68
2021/09/07 02:04:34;;;;;;;7.22;5.92;;;;;;;22.85;54.59;100950.94;1820627;78;21538;-69
2021/09/07 02:07:03;;;;;;;5.65;5.12;;;;;;;22.85;54.61;100954.49;1793522;78;21006;-68
2021/09/07 02:09:30;;;;;;;7.08;5.97;;;;;;;22.87;54.41;100950.19;1823600;78;21844;-68
2021/09/07 02:11:58;;;;;;;5.78;5.17;;;;;;;22.88;54.35;100958.63;1812410;78;21187;-68
2021/09/07 02:14:26;;;;;;;7.03;5.30;;;;;;;22.88;54.50;100961.34;1827543;78;21084;-70
2021/09/07 02:16:53;;;;;;;7.87;5.75;;;;;;;22.83;54.38;100950.33;1828202;78;20970;-69
2021/09/07 02:19:20;;;;;;;6.72;5.42;;;;;;;22.90;54.62;100969.55;1805416;78;21623;-69
2021/09/07 02:21:48;;;;;;;8.15;5.85;;;;;;;22.91;54.14;100968.52;1821313;78;21004;-69
2021/09/07 02:24:17;;;;;;;6.75;5.30;;;;;;;22.93;54.38;100962.87;1818836;78;21977;-69
2021/09/07 02:26:44;;;;;;;8.45;6.17;;;;;;;22.92;54.64;100959.31;1811088;78;21533;-69
2021/09/07 02:29:10;;;;;;;7.90;5.55;;;;;;;22.94;54.36;100959.10;1817433;78;21508;-68
2021/09/07 02:31:38;;;;;;;7.70;5.35;;;;;;;22.94;54.47;100961.81;1755536;81;21025;-69
2021/09/07 02:34:05;;;;;;;5.90;5.30;;;;;;;22.94;54.75;100957.22;1744476;81;21636;-70
2021/09/07 02:36:34;;;;;;;6.78;4.22;;;;;;;22.95;54.87;100957.53;1785647;80;21143;-71
2021/09/07 02:39:01;;;;;;;6.20;5.28;;;;;;;22.95;54.74;100956.71;1790288;80;21118;-71
2021/09/07 02:41:28;;;;;;;5.87;5.28;;;;;;;22.95;54.81;100960.77;1783838;80;21013;-69
2021/09/07 02:43:55;;;;;;;8.08;5.53;;;;;;;22.94;54.85;100953.15;1759723;81;21657;-69
2021/09/07 02:46:25;;;;;;;6.67;5.50;;;;;;;22.95;54.85;100966.20;1761103;81;21096;-69
2021/09/07 02:48:52;;;;;;;7.00;5.30;;;;;;;22.97;54.44;100963.56;1747203;81;21163;-69
2021/09/07 02:51:19;;;;;;;7.30;5.78;;;;;;;22.96;54.41;100957.82;1761510;81;21002;-68
2021/09/07 02:53:48;;;;;;;6.35;5.10;;;;;;;22.99;53.89;100966.59;1762665;81;21060;-68
2021/09/07 02:56:16;;;;;;;7.40;5.03;;;;;;;23.01;54.13;100969.91;1765361;81;21533;-67
2021/09/07 02:58:46;;;;;;;8.10;5.28;;;;;;;23.02;54.13;100960.71;1764727;81;21060;-67
2021/09/07 03:01:14;;;;;;;6.70;5.40;;;;;;;23.05;54.09;100964.38;1791985;80;21129;-69
2021/09/07 03:03:40;;;;;;;8.55;5.72;;;;;;;23.07;54.27;100967.16;1791041;79;21021;-67
2021/09/07 03:06:07;;;;;;;7.47;5.33;;;;;;;23.08;53.97;100966.63;1791962;80;21006;-69
2021/09/07 03:08:33;;;;;;;6.75;4.78;;;;;;;23.11;53.45;100971.62;1789136;79;21628;-68
2021/09/07 03:11:00;;;;;;;8.25;5.67;;;;;;;23.11;53.83;100962.95;1791378;78;20985;-68
2021/09/07 03:13:27;;;;;;;7.08;5.20;;;;;;;23.12;53.73;100957.00;1775813;79;21120;-66
2021/09/07 03:15:53;;;;;;;6.75;5.20;;;;;;;23.13;53.81;100962.20;1783476;79;20994;-66
2021/09/07 03:18:20;;;;;;;8.50;5.92;;;;;;;23.16;53.38;100967.73;1778247;78;21016;-67
2021/09/07 03:20:47;;;;;;;7.25;4.92;;;;;;;23.16;53.27;100971.27;1789656;78;20990;-67
2021/09/07 03:23:16;;;;;;;7.97;5.12;;;;;;;23.18;53.38;100966.98;1805515;78;21128;-67
2021/09/07 03:25:43;;;;;;;7.42;4.72;;;;;;;23.19;53.27;100982.17;1793777;79;22274;-66
2021/09/07 03:28:11;;;;;;;5.78;4.75;;;;;;;23.20;53.87;100974.36;1789586;78;21115;-68
2021/09/07 03:30:39;;;;;;;7.60;5.50;;;;;;;23.19;53.14;100968.63;1800356;79;21011;-66
2021/09/07 03:33:05;;;;;;;5.05;4.50;;;;;;;23.20;53.04;100970.30;1787055;79;21135;-66
2021/09/07 03:35:32;;;;;;;7.67;4.85;;;;;;;23.21;52.83;100978.72;1785524;78;21105;-66
2021/09/07 03:38:00;;;;;;;5.20;4.53;;;;;;;23.22;52.75;100969.55;1791537;79;21099;-66
2021/09/07 03:40:28;;;;;;;5.03;4.55;;;;;;;23.23;52.14;100974.44;1786059;79;21648;-66
2021/09/07 03:42:57;;;;;;;7.28;5.20;;;;;;;23.24;52.86;100979.64;1770169;80;21053;-66
2021/09/07 03:45:26;;;;;;;7.50;4.65;;;;;;;23.25;52.99;100975.04;1769764;79;21029;-66
2021/09/07 03:47:54;;;;;;;7.55;5.00;;;;;;;23.26;52.97;100972.65;1772354;79;21533;-66
2021/09/07 03:50:21;;;;;;;8.05;5.33;;;;;;;23.25;52.95;100969.08;1753734;79;21127;-66
2021/09/07 03:52:49;;;;;;;6.28;4.92;;;;;;;23.26;52.62;100971.30;1762685;80;21494;-68
2021/09/07 03:55:17;;;;;;;5.47;4.42;;;;;;;23.27;52.84;100968.87;1750959;80;21056;-67
2021/09/07 03:57:45;;;;;;;9.60;5.30;;;;;;;23.27;52.42;100971.05;1756382;81;21033;-67
2021/09/07 04:00:13;;;;;;;5.30;4.33;;;;;;;23.27;52.67;100975.11;1761811;80;21080;-67
2021/09/07 04:02:40;;;;;;;4.90;4.40;;;;;;;23.29;53.00;100970.30;1759600;80;21101;-67
2021/09/07 04:05:09;;;;;;;5.30;4.20;;;;;;;23.29;53.10;100975.72;1747431;80;21060;-68
2021/09/07 04:07:35;;;;;;;5.62;4.50;;;;;;;23.30;52.96;100972.50;1750856;80;21018;-69
2021/09/07 04:10:03;;;;;;;5.17;4.60;;;;;;;23.30;52.62;100975.21;1753022;80;21017;-67
2021/09/07 04:12:30;;;;;;;5.28;4.65;;;;;;;23.30;52.83;100971.97;1751478;81;21101;-68
2021/09/07 04:14:57;;;;;;;6.60;5.60;;;;;;;23.31;52.94;100972.28;1808863;78;22340;-69
2021/09/07 04:17:24;;;;;;;6.53;5.03;;;;;;;23.31;52.85;100972.79;1782683;79;21041;-68
2021/09/07 04:19:51;;;;;;;5.65;5.00;;;;;;;23.32;52.44;100974.46;1767254;80;21018;-69
2021/09/07 04:22:20;;;;;;;6.83;4.28;;;;;;;23.33;52.10;100981.53;1763820;80;21541;-68
2021/09/07 04:24:47;;;;;;;5.85;5.25;;;;;;;23.33;51.84;100978.31;1761042;80;21121;-69
2021/09/07 04:27:14;;;;;;;6.60;4.95;;;;;;;23.33;52.16;100982.37;1756072;80;21151;-69
2021/09/07 04:29:41;;;;;;;6.47;5.12;;;;;;;23.35;52.18;100980.28;1763107;80;21150;-69
2021/09/07 04:32:08;;;;;;;5.37;4.85;;;;;;;23.36;51.95;100983.81;1759655;80;21045;-69
2021/09/07 04:34:34;;;;;;;6.33;5.05;;;;;;;23.38;51.86;100983.59;1759124;80;21122;-67
2021/09/07 04:37:01;;;;;;;6.15;4.92;;;;;;;23.39;51.95;100981.17;1766269;80;21064;-67
2021/09/07 04:39:28;;;;;;;6.22;4.65;;;;;;;23.33;51.58;100978.81;1766580;80;21149;-67
2021/09/07 04:41:54;;;;;;;6.08;4.78;;;;;;;23.41;51.82;100987.20;1768249;80;21080;-67
2021/09/07 04:44:22;;;;;;;6.17;4.42;;;;;;;23.41;51.81;100981.27;1754968;81;21077;-66
2021/09/07 04:46:51;;;;;;;4.85;4.25;;;;;;;23.42;51.87;100984.80;1764900;80;21061;-66
2021/09/07 04:49:18;;;;;;;5.42;4.37;;;;;;;23.43;51.80;100985.09;1773304;78;21088;-66
2021/09/07 04:51:45;;;;;;;5.80;3.98;;;;;;;23.43;51.86;100980.52;1786263;78;21129;-67
2021/09/07 04:54:12;;;;;;;5.72;4.72;;;;;;;23.45;51.75;100981.63;1804217;78;21032;-67
2021/09/07 04:56:39;;;;;;;6.58;4.53;;;;;;;23.45;51.81;100980.27;1792500;78;21099;-66
2021/09/07 04:59:06;;;;;;;5.37;4.10;;;;;;;23.46;51.95;100978.70;1771072;79;21057;-66
2021/09/07 05:01:32;;;;;;;5.45;4.17;;;;;;;23.47;51.53;100983.08;1776131;79;21084;-69
2021/09/07 05:03:58;;;;;;;5.05;4.00;;;;;;;23.47;51.59;100983.08;1784724;79;21790;-68
2021/09/07 05:09:06;;;;;;;6.12;4.05;;;;;;;23.54;51.44;100981.64;1769221;79;22701;-68
2021/09/07 05:11:33;;;;;;;4.60;4.20;;;;;;;23.52;51.55;100982.40;1756864;80;21505;-67
2021/09/07 05:14:00;;;;;;;5.15;4.20;;;;;;;23.51;51.46;100981.58;1752713;80;21124;-66
2021/09/07 05:16:26;;;;;;;6.03;4.72;;;;;;;23.52;51.37;100980.51;1755798;79;21049;-69
2021/09/07 05:18:55;;;;;;;6.55;5.10;;;;;;;23.54;51.39;100997.92;1730944;80;20953;-67
2021/09/07 05:21:22;;;;;;;6.15;4.87;;;;;;;23.54;50.98;101000.63;1767404;80;20984;-68
2021/09/07 05:23:51;;;;;;;5.78;4.50;;;;;;;23.55;50.58;101003.66;1769621;79;20926;-66
2021/09/07 05:26:17;;;;;;;5.17;4.55;;;;;;;23.55;50.25;101002.30;1780958;79;21150;-67
2021/09/07 05:28:44;;;;;;;7.20;5.10;;;;;;;23.57;50.55;101008.34;1773141;79;22089;-68
2021/09/07 05:31:11;;;;;;;6.10;4.75;;;;;;;23.59;50.85;101008.94;1755981;79;21057;-70
2021/09/07 05:33:37;;;;;;;5.72;4.55;;;;;;;23.59;50.76;101006.23;1756453;79;21010;-68
2021/09/07 05:36:05;;;;;;;6.05;4.47;;;;;;;23.61;50.55;101010.08;1751451;79;20997;-67
2021/09/07 05:38:32;;;;;;;7.03;4.53;;;;;;;23.62;50.79;101011.72;1762689;79;21124;-68
2021/09/07 05:40:59;;;;;;;8.30;5.28;;;;;;;23.63;50.58;101024.24;1753183;79;21042;-67
2021/09/07 05:43:25;;;;;;;8.05;5.20;;;;;;;23.63;50.16;101025.06;1753668;79;21041;-68
2021/09/07 05:45:51;;;;;;;7.25;5.17;;;;;;;23.63;49.97;101023.70;1773938;79;21076;-69
2021/09/07 05:48:18;;;;;;;10.15;5.65;;;;;;;23.64;50.00;101019.95;1761027;79;21108;-67
2021/09/07 05:50:46;;;;;;;11.00;5.97;;;;;;;23.66;49.65;101019.70;1760425;79;21037;-68
2021/09/07 05:53:13;;;;;;;11.75;5.12;;;;;;;23.67;49.48;101027.63;1779638;79;21002;-66
2021/09/07 05:55:40;;;;;;;9.63;5.37;;;;;;;23.68;49.23;101027.09;1784573;79;21009;-66
2021/09/07 05:58:06;;;;;;;9.95;6.47;;;;;;;23.68;49.07;101033.37;1770362;79;21142;-67
2021/09/07 06:00:33;;;;;;;8.28;4.92;;;;;;;23.70;48.94;101031.77;1763936;79;21006;-67
2021/09/07 06:03:02;;;;;;;9.58;5.78;;;;;;;23.70;48.79;101038.05;1764415;79;21123;-67
2021/09/07 06:05:28;;;;;;;9.68;4.62;;;;;;;23.73;48.67;101039.47;1769709;79;21544;-67
2021/09/07 06:07:55;;;;;;;14.65;5.05;;;;;;;23.73;48.85;101035.41;1763602;79;21002;-66
2021/09/07 06:10:22;;;;;;;9.23;5.33;;;;;;;23.75;48.64;101050.39;1775944;80;21046;-67
2021/09/07 06:12:48;;;;;;;7.03;4.85;;;;;;;23.75;48.29;101047.68;1752433;79;21009;-69
2021/09/07 06:15:16;;;;;;;8.50;5.08;;;;;;;23.77;48.29;101056.96;1759807;79;21038;-68
2021/09/07 06:17:42;;;;;;;10.48;5.20;;;;;;;23.78;48.19;101052.36;1760160;79;21021;-68
2021/09/07 06:20:11;;;;;;;8.03;5.78;;;;;;;23.78;47.94;101051.00;1750871;80;21022;-70
2021/09/07 06:22:37;;;;;;;13.40;5.87;;;;;;;23.79;48.02;101055.42;1761390;79;21639;-71
2021/09/07 06:25:06;;;;;;;9.73;5.20;;;;;;;23.80;47.85;101062.48;1773729;80;21552;-70
2021/09/07 06:27:33;;;;;;;12.60;5.05;;;;;;;23.81;47.95;101061.45;1759074;80;21113;-74
2021/09/07 06:29:59;;;;;;;8.93;4.60;;;;;;;23.81;47.53;101069.05;1755688;80;21084;-71
2021/09/07 06:32:26;;;;;;;12.28;5.17;;;;;;;23.83;47.75;101069.66;1751802;79;21106;-71
2021/09/07 06:34:53;;;;;;;12.10;5.87;;;;;;;23.84;48.10;101063.73;1763247;80;21058;-72
2021/09/07 06:37:19;;;;;;;8.88;5.53;;;;;;;23.85;47.99;101066.19;1759986;79;21132;-71
2021/09/07 06:39:46;;;;;;;10.98;5.60;;;;;;;23.87;47.99;101068.16;1762748;79;21128;-76
2021/09/07 06:42:14;;;;;;;10.53;5.80;;;;;;;23.88;48.08;101064.94;1763910;80;21022;-75
2021/09/07 06:44:41;;;;;;;10.93;5.70;;;;;;;23.89;47.86;101067.94;1753184;79;21014;-77
2021/09/07 06:47:07;;;;;;;7.92;4.95;;;;;;;23.89;47.65;101066.08;1767504;80;21046;-73
2021/09/07 06:49:35;;;;;;;9.68;5.12;;;;;;;23.90;46.83;101077.22;1760000;79;21061;-73
2021/09/07 06:52:01;;;;;;;7.28;5.20;;;;;;;23.87;44.62;101073.58;1757817;80;21155;-72
2021/09/07 06:54:28;;;;;;;8.63;5.30;;;;;;;23.82;45.16;101083.47;1768350;79;21014;-70
2021/09/07 06:56:56;;;;;;;6.28;5.05;;;;;;;23.76;45.13;101089.23;1755528;79;21037;-73
2021/09/07 06:59:23;;;;;;;6.00;4.55;;;;;;;23.69;43.54;101086.56;1765953;80;21034;-72
2021/09/07 07:01:49;;;;;;;6.15;4.70;;;;;;;23.65;44.13;101082.64;1754989;79;21045;-72
2021/09/07 07:04:16;;;;;;;6.47;4.78;;;;;;;23.60;42.61;101087.06;1760832;80;21142;-73
2021/09/07 07:06:42;;;;;;;8.18;4.62;;;;;;;23.53;42.38;101085.24;1762943;80;21073;-72
2021/09/07 07:09:09;;;;;;;15.30;8.98;;;;;;;23.48;43.38;101093.20;1759309;80;21093;-72
2021/09/07 07:11:35;;;;;;;17.70;9.05;;;;;;;23.46;43.12;101093.12;1748474;79;21025;-68
2021/09/07 07:14:02;;;;;;;19.17;9.35;;;;;;;23.42;43.25;101089.20;1755166;80;21053;-70
2021/09/07 07:16:28;;;;;;;13.22;7.95;;;;;;;23.40;43.53;101088.06;1755117;79;21077;-70
2021/09/07 07:18:55;;;;;;;10.90;5.67;;;;;;;23.39;43.46;101092.34;1766481;79;21375;-72
2021/09/07 07:21:22;;;;;;;10.23;6.17;;;;;;;23.35;40.78;101091.44;1769192;80;21042;-71
2021/09/07 07:23:49;;;;;;;11.25;5.67;;;;;;;23.28;40.86;101085.77;1756997;79;21041;-70
2021/09/07 07:26:16;;;;;;;10.00;6.37;;;;;;;23.24;41.24;101087.25;1756548;79;21077;-72
2021/09/07 07:28:45;;;;;;;11.65;6.08;;;;;;;23.22;41.68;101090.18;1748065;79;21107;-73
2021/09/07 07:31:12;;;;;;;9.43;6.10;;;;;;;23.19;42.12;101087.89;1759840;80;21120;-72
2021/09/07 07:33:39;;;;;;;14.80;6.37;;;;;;;23.21;42.12;101084.44;1754647;80;21022;-72
2021/09/07 07:36:07;;;;;;;10.85;6.08;;;;;;;23.20;42.29;101080.08;1748075;79;21474;-71
2021/09/07 07:38:33;;;;;;;9.88;5.83;;;;;;;23.23;42.23;101096.42;1758539;80;21141;-71
2021/09/07 07:41:01;;;;;;;10.80;5.53;;;;;;;23.23;42.10;101095.06;1751250;79;21064;-70
2021/09/07 07:43:30;;;;;;;10.08;5.28;;;;;;;23.25;42.13;101090.25;1749035;79;21529;-71
2021/09/07 07:45:57;;;;;;;7.17;5.17;;;;;;;23.25;42.09;101092.44;1753679;79;20994;-72
2021/09/07 07:48:24;;;;;;;8.28;5.40;;;;;;;23.26;42.39;101086.51;1754757;79;21081;-72
2021/09/07 07:50:51;;;;;;;8.10;5.42;;;;;;;23.27;42.32;101088.16;1766856;79;21029;-70
2021/09/07 07:53:17;;;;;;;8.90;5.08;;;;;;;23.27;41.82;101082.73;1749808;80;21101;-70
2021/09/07 07:55:44;;;;;;;6.67;4.65;;;;;;;23.28;42.77;101085.77;1763950;80;21624;-72
2021/09/07 07:58:10;;;;;;;6.97;4.58;;;;;;;23.29;42.49;101086.88;1772363;80;21545;-71
2021/09/07 08:00:37;;;;;;;10.20;5.25;;;;;;;23.31;42.31;101088.87;1757351;79;21150;-72
2021/09/07 08:03:04;;;;;;;7.60;5.25;;;;;;;23.31;42.21;101088.87;1760738;79;21010;-71
2021/09/07 08:05:31;;;;;;;6.85;4.83;;;;;;;23.32;43.18;101087.80;1739411;80;22112;-73
2021/09/07 08:07:57;;;;;;;6.83;4.80;;;;;;;23.34;41.85;101079.45;1759458;79;21046;-71
2021/09/07 08:10:24;;;;;;;6.78;4.78;;;;;;;23.34;42.62;101072.67;1749814;80;21533;-71
2021/09/07 08:12:50;;;;;;;8.70;4.95;;;;;;;23.35;42.82;101076.53;1760328;80;21049;-72
2021/09/07 08:15:18;;;;;;;5.35;4.50;;;;;;;23.38;42.76;101077.14;1757942;80;21041;-71
2021/09/07 08:17:44;;;;;;;6.50;4.42;;;;;;;23.39;41.41;101085.56;1755059;79;21124;-72
2021/09/07 08:20:14;;;;;;;7.20;4.60;;;;;;;23.40;41.47;101092.13;1750044;80;21021;-71
2021/09/07 08:22:42;;;;;;;5.37;4.00;;;;;;;23.40;41.39;101081.28;1754956;79;20998;-70
2021/09/07 08:25:09;;;;;;;7.40;4.05;;;;;;;23.40;40.47;101085.88;1775900;80;21022;-72
2021/09/07 08:27:36;;;;;;;10.80;4.35;;;;;;;23.40;39.59;101081.81;1754344;80;21073;-70
2021/09/07 08:30:05;;;;;;;7.40;4.67;;;;;;;23.37;38.84;101077.64;1765041;79;21178;-71
2021/09/07 08:32:31;;;;;;;6.65;4.28;;;;;;;23.34;39.30;101071.32;1760211;80;21045;-70
2021/09/07 08:34:58;;;;;;;11.88;4.60;;;;;;;23.34;40.60;101074.85;1752762;80;21022;-71
2021/09/07 08:37:24;;;;;;;11.22;4.37;;;;;;;23.35;39.73;101091.44;1752747;80;21029;-71
2021/09/07 08:39:52;;;;;;;6.22;3.70;;;;;;;23.36;39.86;101073.28;1749945;80;21689;-71
2021/09/07 08:42:19;;;;;;;8.53;3.95;;;;;;;23.39;40.21;101076.07;1748962;80;21963;-71
2021/09/07 08:44:47;;;;;;;5.55;3.90;;;;;;;23.42;40.35;101077.00;1754668;79;21031;-70
2021/09/07 08:47:17;;;;;;;5.00;3.70;;;;;;;23.44;40.28;101086.56;1762241;80;21009;-70
2021/09/07 08:49:45;;;;;;;5.78;3.62;;;;;;;23.46;39.72;101089.88;1748811;79;21521;-69
2021/09/07 08:52:14;;;;;;;4.83;3.12;;;;;;;23.47;38.88;101087.98;1753467;80;21061;-69
2021/09/07 08:54:41;;;;;;;6.53;3.40;;;;;;;23.47;38.31;101081.21;1748697;80;21066;-70
2021/09/07 08:57:11;;;;;;;4.70;3.27;;;;;;;23.47;38.49;101078.50;1752113;80;21588;-70
2021/09/07 08:59:38;;;;;;;10.25;4.15;;;;;;;23.46;39.02;101073.61;1750627;79;21072;-70
2021/09/07 09:02:15;;;;;;;6.10;3.33;;;;;;;23.49;38.86;101073.18;1760552;80;21010;-69
2021/09/07 09:04:48;;;;;;;5.42;3.55;;;;;;;23.53;38.90;101067.61;1750579;79;21085;-71
2021/09/07 09:07:24;;;;;;;7.55;4.28;;;;;;;23.55;39.25;101064.16;1763485;80;21777;-70
2021/09/07 09:09:51;;;;;;;3.70;3.30;;;;;;;23.59;38.99;101077.28;1744778;80;21019;-69
2021/09/07 09:12:39;;;;;;;4.72;3.25;;;;;;;23.58;36.57;101063.41;1749670;79;21097;-72
2021/09/07 09:15:16;;;;;;;6.25;3.50;;;;;;;23.56;37.64;101066.33;1743169;81;21524;-71
2021/09/07 09:17:44;;;;;;;3.75;3.00;;;;;;;23.55;37.81;101064.16;1751143;79;22213;-70
2021/09/07 09:20:14;;;;;;;4.05;3.33;;;;;;;23.58;38.18;101066.11;1747310;79;21092;-69
2021/09/07 09:22:50;;;;;;;4.87;3.15;;;;;;;23.61;38.03;101054.83;1744467;81;21482;-71
2021/09/07 09:25:24;;;;;;;4.80;3.50;;;;;;;23.63;37.36;101047.30;1752222;81;21311;-70
2021/09/07 09:28:03;;;;;;;3.85;2.80;;;;;;;23.65;37.39;101062.29;1748316;81;21093;-71
2021/09/07 09:30:40;;;;;;;4.15;2.92;;;;;;;23.68;36.77;101072.71;1751830;81;21030;-71
2021/09/07 09:33:07;;;;;;;5.30;3.58;;;;;;;23.69;36.86;101068.92;1746706;79;21909;-71
2021/09/07 09:35:48;;;;;;;3.80;2.90;;;;;;;23.70;36.71;101067.89;1741764;81;21058;-71
2021/09/07 09:38:17;;;;;;;4.62;2.80;;;;;;;23.73;36.94;101055.75;1728372;80;21534;-70
2021/09/07 09:40:44;;;;;;;5.83;2.40;;;;;;;23.77;37.00;101053.42;1748787;81;21061;-70
2021/09/07 09:43:25;;;;;;;5.72;2.83;;;;;;;23.78;35.87;101043.74;1751150;81;21530;-69
2021/09/07 09:45:53;;;;;;;3.75;3.12;;;;;;;23.79;36.44;101063.02;1746485;81;21121;-70
2021/09/07 09:48:30;;;;;;;3.52;2.50;;;;;;;23.81;36.14;101047.88;1746563;81;21053;-70
2021/09/07 09:50:59;;;;;;;2.95;2.60;;;;;;;23.82;36.31;101041.41;1747027;81;21054;-70
2021/09/07 09:53:27;;;;;;;4.00;2.67;;;;;;;23.87;36.24;101055.13;1745763;81;21081;-70
2021/09/07 09:55:55;;;;;;;6.03;2.92;;;;;;;23.90;36.02;101047.90;1744379;81;21019;-69
2021/09/07 09:58:22;;;;;;;4.75;3.35;;;;;;;23.93;36.10;101063.71;1755707;81;21137;-71
2021/09/07 10:00:50;;;;;;;5.92;3.02;;;;;;;23.96;36.12;101049.70;1755038;81;21076;-71
2021/09/07 10:03:17;;;;;;;3.60;2.75;;;;;;;23.99;36.26;101059.27;1744979;81;21627;-72
2021/09/07 10:06:50;;;;;;;5.12;3.17;;;;;;;24.09;36.41;101055.00;1793272;79;22605;-69
2021/09/07 10:09:17;;;;;;;5.30;2.90;;;;;;;24.09;35.73;101048.74;1723082;81;20993;-70
2021/09/07 10:11:43;;;;;;;3.98;3.12;;;;;;;24.12;36.19;101054.52;1722444;81;21799;-70
2021/09/07 10:14:14;;;;;;;3.42;2.87;;;;;;;24.16;36.29;101056.80;1716890;81;21200;-71
2021/09/07 10:16:44;;;;;;;4.05;2.95;;;;;;;24.20;36.59;101066.15;1714563;81;21615;-69
2021/09/07 10:19:47;;;;;;;3.55;3.25;;;;;;;24.21;35.75;101065.92;1685921;81;21563;-70
2021/09/07 10:23:49;;;;;;;4.35;3.00;;;;;;;24.22;35.90;101047.74;1714651;81;21033;-71
2021/09/07 10:25:52;;;;;;;4.47;3.17;;;;;;;24.25;36.27;101043.23;1700520;81;21288;-71
2021/09/07 10:28:40;;;;;;;6.90;3.77;;;;;;;24.28;36.74;101035.97;1708189;81;21497;-71
2021/09/07 10:31:17;;;;;;;3.55;3.25;;;;;;;24.31;36.87;101034.17;1699798;81;21430;-70
2021/09/07 10:34:01;;;;;;;6.15;3.17;;;;;;;24.34;37.03;101053.55;1706493;81;21060;-70
2021/09/07 10:36:30;;;;;;;4.78;3.45;;;;;;;24.39;36.46;101031.67;1694451;81;21031;-70
2021/09/07 10:38:59;;;;;;;5.97;3.10;;;;;;;24.44;36.48;101035.90;1695983;81;21105;-69
2021/09/07 10:41:41;;;;;;;3.27;2.87;;;;;;;24.48;36.76;101033.84;1711426;81;21529;-69
2021/09/07 10:44:26;;;;;;;4.75;3.67;;;;;;;24.52;36.85;101026.92;1710797;81;21548;-70
2021/09/07 10:47:03;;;;;;;5.37;3.50;;;;;;;24.57;36.83;101038.98;1723411;81;20989;-70
2021/09/07 10:49:45;;;;;;;5.70;3.35;;;;;;;24.60;36.57;101046.15;1700036;81;21073;-70
2021/09/07 10:52:20;;;;;;;3.72;3.33;;;;;;;24.63;36.28;101030.76;1702601;81;21102;-69
2021/09/07 10:55:11;;;;;;;4.17;3.27;;;;;;;24.68;36.50;101034.13;1701632;81;21040;-69
2021/09/07 10:57:46;;;;;;;5.62;3.12;;;;;;;24.71;36.54;101035.86;1709116;81;21041;-69
2021/09/07 11:00:28;;;;;;;4.83;3.30;;;;;;;24.73;35.62;101034.28;1717664;83;21658;-69
2021/09/07 11:02:56;;;;;;;5.03;3.87;;;;;;;24.75;35.67;101036.77;1709787;82;21822;-67
2021/09/07 11:05:29;;;;;;;4.85;3.58;;;;;;;24.76;35.64;101032.44;1708056;83;21763;-70
2021/09/07 11:08:05;;;;;;;11.12;3.40;;;;;;;24.80;35.68;101032.81;1684953;83;21525;-69
2021/09/07 11:10:34;;;;;;;4.30;3.25;;;;;;;24.84;35.89;101023.98;1697339;83;21530;-68
2021/09/07 11:13:16;;;;;;;5.95;3.50;;;;;;;24.89;35.52;101020.56;1694919;83;21081;-67
2021/09/07 11:15:43;;;;;;;5.75;3.22;;;;;;;24.94;34.54;101011.19;1702167;83;21101;-66
2021/09/07 11:18:13;;;;;;;4.30;3.47;;;;;;;24.98;33.74;101006.94;1691955;83;21119;-68
2021/09/07 11:20:46;;;;;;;9.90;3.65;;;;;;;25.03;33.76;101006.23;1708388;83;21646;-67
2021/09/07 11:23:25;;;;;;;3.83;3.17;;;;;;;25.06;33.80;101019.37;1688617;83;22027;-68
2021/09/07 11:26:07;;;;;;;3.80;3.00;;;;;;;25.09;33.40;101006.65;1706803;83;21054;-66
2021/09/07 11:28:35;;;;;;;4.53;3.57;;;;;;;25.10;33.24;101025.99;1701682;83;21589;-67
2021/09/07 11:31:03;;;;;;;6.78;3.30;;;;;;;25.12;32.98;101010.27;1700644;83;21388;-65
2021/09/07 11:33:33;;;;;;;5.10;2.87;;;;;;;25.16;33.92;101006.56;1692544;83;22059;-66
2021/09/07 11:36:04;;;;;;;5.40;2.92;;;;;;;25.19;34.64;101000.13;1696618;83;21105;-68